createdAt,value
2023-05-10T00:01:58.500Z,24.55
2023-05-10T00:04:29.686Z,23.85
2023-05-10T00:06:59.015Z,24.60
2023-05-10T00:09:28.122Z,23.85
2023-05-10T00:12:00.514Z,22.98
2023-05-10T00:14:29.812Z,24.90
2023-05-10T00:16:59.059Z,22.00
2023-05-10T00:19:28.814Z,21.83
2023-05-10T00:21:57.927Z,21.92
2023-05-10T00:24:27.301Z,21.05
2023-05-10T00:26:56.872Z,22.02
2023-05-10T00:29:27.962Z,21.85
2023-05-10T00:31:58.435Z,21.75
2023-05-10T00:34:27.937Z,21.75
2023-05-10T00:36:57.162Z,21.77
2023-05-10T00:39:26.477Z,21.17
2023-05-10T00:41:55.792Z,21.40
2023-05-10T00:44:25.080Z,22.80
2023-05-10T00:46:55.617Z,20.38
2023-05-10T00:49:25.273Z,20.20
2023-05-10T00:51:54.506Z,19.40
2023-05-10T00:54:23.718Z,17.98
2023-05-10T00:56:54.130Z,17.80
2023-05-10T00:59:24.103Z,16.50
2023-05-10T01:01:53.700Z,15.35
2023-05-10T01:04:27.586Z,14.60
2023-05-10T01:06:57.092Z,14.20
2023-05-10T01:09:58.852Z,13.55
2023-05-10T01:12:28.701Z,12.77
2023-05-10T01:14:58.198Z,12.70
2023-05-10T01:17:28.410Z,11.70
2023-05-10T01:19:58.280Z,11.40
2023-05-10T01:22:54.679Z,12.65
2023-05-10T01:25:48.960Z,12.15
2023-05-10T01:28:50.354Z,12.93
2023-05-10T01:31:55.931Z,14.68
2023-05-10T01:34:35.493Z,14.40
2023-05-10T01:37:13.447Z,15.13
2023-05-10T01:39:52.209Z,16.52
2023-05-10T01:42:29.668Z,15.52
2023-05-10T01:45:19.273Z,17.17
2023-05-10T01:48:04.763Z,16.58
2023-05-10T01:50:38.276Z,17.35
2023-05-10T01:53:10.911Z,17.58
2023-05-10T01:55:51.076Z,16.90
2023-05-10T01:58:25.241Z,17.33
2023-05-10T02:00:56.255Z,17.33
2023-05-10T02:03:28.393Z,15.57
2023-05-10T02:05:59.903Z,15.38
2023-05-10T02:08:29.557Z,15.77
2023-05-10T02:11:01.063Z,13.88
2023-05-10T02:13:32.423Z,16.33
2023-05-10T02:16:03.467Z,15.63
2023-05-10T02:18:35.692Z,15.65
2023-05-10T02:21:06.108Z,17.23
2023-05-10T02:23:37.104Z,16.75
2023-05-10T02:26:08.850Z,17.35
2023-05-10T02:28:39.652Z,18.13
2023-05-10T02:31:12.037Z,19.67
2023-05-10T02:33:43.314Z,18.40
2023-05-10T02:36:13.353Z,19.15
2023-05-10T02:38:43.368Z,21.25
2023-05-10T02:41:14.678Z,20.73
2023-05-10T02:43:45.604Z,19.77
2023-05-10T02:46:15.326Z,18.52
2023-05-10T02:48:44.537Z,15.98
2023-05-10T02:51:16.415Z,16.30
2023-05-10T02:53:48.747Z,16.50
2023-05-10T02:56:32.328Z,17.17
2023-05-10T02:59:02.029Z,15.75
2023-05-10T03:01:32.034Z,14.73
2023-05-10T03:04:01.427Z,13.23
2023-05-10T03:06:31.201Z,12.65
2023-05-10T03:09:00.377Z,12.20
2023-05-10T03:12:10.728Z,11.85
2023-05-10T03:15:04.039Z,10.38
2023-05-10T03:17:43.247Z,11.65
2023-05-10T03:20:25.492Z,10.20
2023-05-10T03:23:03.472Z,10.48
2023-05-10T03:25:34.202Z,10.18
2023-05-10T03:28:07.619Z,8.98
2023-05-10T03:30:38.768Z,9.15
2023-05-10T03:33:09.435Z,8.57
2023-05-10T03:38:11.339Z,9.02
2023-05-10T03:40:41.377Z,7.97
2023-05-10T03:43:12.235Z,7.65
2023-05-10T03:45:42.174Z,6.57
2023-05-10T03:48:11.460Z,6.85
2023-05-10T03:50:40.698Z,7.10
2023-05-10T03:53:09.834Z,7.25
2023-05-10T03:55:39.415Z,7.45
2023-05-10T03:58:08.841Z,7.00
2023-05-10T04:00:37.941Z,7.82
2023-05-10T04:03:07.439Z,7.03
2023-05-10T04:05:36.510Z,6.93
2023-05-10T04:08:06.314Z,6.32
2023-05-10T04:10:36.502Z,5.70
2023-05-10T04:13:06.151Z,6.10
2023-05-10T04:15:35.570Z,5.50
2023-05-10T04:18:06.571Z,6.18
2023-05-10T04:20:37.644Z,6.50
2023-05-10T04:23:06.833Z,7.20
2023-05-10T04:25:37.585Z,8.45
2023-05-10T04:28:07.406Z,8.02
2023-05-10T04:30:36.971Z,6.93
2023-05-10T04:33:06.313Z,7.00
2023-05-10T04:35:36.338Z,7.28
2023-05-10T04:38:05.582Z,6.25
2023-05-10T04:40:34.820Z,6.75
2023-05-10T04:43:04.538Z,6.65
2023-05-10T04:45:33.723Z,6.47
2023-05-10T04:48:02.987Z,5.43
2023-05-10T04:50:32.364Z,4.78
2023-05-10T04:53:01.682Z,4.45
2023-05-10T04:55:30.939Z,4.90
2023-05-10T04:58:01.270Z,4.55
2023-05-10T05:00:30.554Z,4.80
2023-05-10T05:02:59.728Z,4.93
2023-05-10T05:05:29.253Z,5.45
2023-05-10T05:07:58.908Z,6.03
2023-05-10T05:10:27.983Z,5.55
2023-05-10T05:12:57.342Z,5.40
2023-05-10T05:15:26.508Z,5.43
2023-05-10T05:17:55.931Z,6.00
2023-05-10T05:20:25.519Z,5.63
2023-05-10T05:22:54.548Z,6.15
2023-05-10T05:25:23.842Z,6.78
2023-05-10T05:27:53.737Z,5.55
2023-05-10T05:30:23.332Z,5.65
2023-05-10T05:32:52.731Z,4.57
2023-05-10T05:35:22.202Z,4.35
2023-05-10T05:37:51.637Z,4.18
2023-05-10T05:40:22.625Z,4.20
2023-05-10T05:42:51.991Z,4.63
2023-05-10T05:45:21.451Z,4.10
2023-05-10T05:47:50.880Z,4.55
2023-05-10T05:50:19.977Z,4.40
2023-05-10T05:52:49.185Z,4.30
2023-05-10T05:55:18.738Z,4.15
2023-05-10T05:57:48.113Z,3.85
2023-05-10T06:00:18.187Z,4.05
2023-05-10T06:02:47.848Z,3.70
2023-05-10T06:05:17.344Z,4.25
2023-05-10T06:07:46.663Z,3.70
2023-05-10T06:10:15.886Z,3.80
2023-05-10T06:12:45.164Z,3.33
2023-05-10T06:15:14.736Z,3.42
2023-05-10T06:17:45.452Z,3.92
2023-05-10T06:20:15.419Z,4.57
2023-05-10T06:22:44.822Z,4.47
2023-05-10T06:25:14.572Z,4.68
2023-05-10T06:27:44.700Z,4.53
2023-05-10T06:30:17.232Z,4.20
2023-05-10T06:32:47.609Z,3.63
2023-05-10T06:35:18.638Z,4.57
2023-05-10T06:37:48.955Z,4.00
2023-05-10T06:40:18.759Z,4.07
2023-05-10T06:42:49.177Z,4.22
2023-05-10T06:45:20.214Z,3.72
2023-05-10T06:47:49.969Z,3.97
2023-05-10T06:50:19.462Z,4.18
2023-05-10T06:52:48.471Z,3.85
2023-05-10T06:55:18.247Z,3.83
2023-05-10T06:57:47.624Z,4.15
2023-05-10T07:00:18.108Z,3.65
2023-05-10T07:02:47.935Z,3.63
2023-05-10T07:05:17.494Z,3.78
2023-05-10T07:07:47.115Z,5.57
2023-05-10T07:10:16.236Z,4.78
2023-05-10T07:12:46.046Z,5.05
2023-05-10T07:15:15.534Z,5.15
2023-05-10T07:17:45.982Z,4.50
2023-05-10T07:20:16.655Z,5.05
2023-05-10T07:22:45.703Z,5.00
2023-05-10T07:25:15.231Z,4.80
2023-05-10T07:27:45.132Z,5.18
2023-05-10T07:30:15.162Z,5.00
2023-05-10T07:32:44.676Z,4.97
2023-05-10T07:35:14.444Z,6.38
2023-05-10T07:37:43.808Z,6.38
2023-05-10T07:40:13.212Z,5.70
2023-05-10T07:42:42.819Z,5.05
2023-05-10T07:45:12.090Z,4.78
2023-05-10T07:47:41.518Z,5.00
2023-05-10T07:50:10.894Z,5.00
2023-05-10T07:52:40.216Z,5.50
2023-05-10T07:55:10.084Z,5.57
2023-05-10T07:57:40.232Z,5.90
2023-05-10T08:00:10.720Z,5.75
2023-05-10T08:02:43.794Z,6.20
2023-05-10T08:05:13.891Z,5.22
2023-05-10T08:07:43.341Z,4.45
2023-05-10T08:10:15.580Z,4.38
2023-05-10T08:12:45.144Z,3.90
2023-05-10T08:15:14.318Z,4.25
2023-05-10T08:17:43.814Z,3.95
2023-05-10T08:20:14.818Z,3.78
2023-05-10T08:22:44.364Z,4.10
2023-05-10T08:25:13.449Z,3.60
2023-05-10T08:27:42.691Z,3.38
2023-05-10T08:30:12.583Z,5.18
2023-05-10T08:32:42.222Z,4.07
2023-05-10T08:35:11.397Z,3.25
2023-05-10T08:37:45.467Z,3.50
2023-05-10T08:40:16.010Z,4.47
2023-05-10T08:42:57.410Z,4.25
2023-05-10T08:45:30.798Z,3.95
2023-05-10T08:48:02.314Z,3.80
2023-05-10T08:50:32.865Z,3.83
2023-05-10T08:53:06.422Z,3.80
2023-05-10T08:55:38.745Z,3.90
2023-05-10T08:58:09.108Z,3.70
2023-05-10T09:00:39.798Z,4.18
2023-05-10T09:03:09.296Z,3.65
2023-05-10T09:05:39.768Z,3.97
2023-05-10T09:08:10.814Z,3.97
2023-05-10T09:10:42.414Z,3.90
2023-05-10T09:13:15.974Z,4.45
2023-05-10T09:15:47.353Z,4.45
2023-05-10T09:18:17.100Z,4.32
2023-05-10T09:20:47.112Z,4.38
2023-05-10T09:23:16.621Z,4.22
2023-05-10T09:25:45.689Z,4.32
2023-05-10T09:28:15.241Z,4.20
2023-05-10T09:30:45.213Z,4.30
2023-05-10T09:33:14.500Z,4.22
2023-05-10T09:35:44.559Z,5.07
2023-05-10T09:38:14.377Z,4.78
2023-05-10T09:40:56.295Z,4.93
2023-05-10T09:43:26.544Z,4.07
2023-05-10T09:45:55.815Z,4.90
2023-05-10T09:48:27.366Z,4.00
2023-05-10T09:51:00.457Z,4.43
2023-05-10T09:53:30.008Z,4.30
2023-05-10T09:55:59.805Z,4.28
2023-05-10T09:58:29.044Z,3.75
2023-05-10T10:00:59.107Z,4.15
2023-05-10T10:03:30.280Z,4.07
2023-05-10T10:06:00.063Z,4.35
2023-05-10T10:08:30.286Z,4.30
2023-05-10T10:10:59.999Z,4.07
2023-05-10T10:13:29.764Z,3.83
2023-05-10T10:15:59.195Z,3.60
2023-05-10T10:18:30.898Z,3.75
2023-05-10T10:21:01.281Z,3.80
2023-05-10T10:23:31.630Z,3.58
2023-05-10T10:26:02.382Z,3.75
2023-05-10T10:28:51.051Z,3.90
2023-05-10T10:31:21.003Z,3.95
2023-05-10T10:33:56.555Z,4.43
2023-05-10T10:36:29.414Z,4.07
2023-05-10T10:39:03.662Z,3.80
2023-05-10T10:41:38.395Z,4.30
2023-05-10T10:44:26.255Z,4.57
2023-05-10T10:47:14.157Z,3.75
2023-05-10T10:49:43.853Z,3.50
2023-05-10T10:52:40.538Z,3.75
2023-05-10T10:55:19.344Z,3.30
2023-05-10T10:58:03.026Z,3.58
2023-05-10T11:03:09.283Z,4.05
2023-05-10T11:05:53.375Z,3.88
2023-05-10T11:08:36.950Z,4.10
2023-05-10T11:11:09.803Z,3.92
2023-05-10T11:13:52.463Z,3.67
2023-05-10T11:16:25.789Z,3.13
2023-05-10T11:19:04.941Z,3.17
2023-05-10T11:21:35.505Z,3.25
2023-05-10T11:24:16.760Z,3.80
2023-05-10T11:26:46.449Z,4.32
2023-05-10T11:29:16.221Z,3.67
2023-05-10T11:31:47.640Z,4.03
2023-05-10T11:34:35.345Z,3.60
2023-05-10T11:37:05.142Z,3.70
2023-05-10T11:39:35.597Z,3.75
2023-05-10T11:42:04.983Z,3.90
2023-05-10T11:44:35.536Z,6.85
2023-05-10T11:47:05.518Z,6.50
2023-05-10T11:49:34.947Z,6.60
2023-05-10T11:52:13.447Z,5.40
2023-05-10T11:54:54.245Z,5.05
2023-05-10T11:57:30.253Z,4.18
2023-05-10T11:59:59.826Z,4.30
2023-05-10T12:02:29.082Z,4.13
2023-05-10T12:04:59.394Z,3.72
2023-05-10T12:07:31.014Z,4.15
2023-05-10T12:10:19.822Z,4.53
2023-05-10T12:12:50.231Z,4.60
2023-05-10T12:15:24.318Z,4.53
2023-05-10T12:17:59.474Z,4.32
2023-05-10T12:20:30.851Z,4.00
2023-05-10T12:23:05.194Z,6.03
2023-05-10T12:25:37.087Z,4.95
2023-05-10T12:28:08.136Z,5.40
2023-05-10T12:30:39.459Z,5.72
2023-05-10T12:33:14.486Z,5.88
2023-05-10T12:35:49.812Z,9.43
2023-05-10T12:38:32.957Z,14.68
2023-05-10T12:41:04.530Z,25.88
2023-05-10T12:43:34.262Z,25.77
2023-05-10T12:46:15.127Z,23.42
2023-05-10T12:48:48.455Z,23.67
2023-05-10T12:51:21.482Z,18.52
2023-05-10T12:53:50.805Z,16.38
2023-05-10T12:56:19.884Z,15.00
2023-05-10T12:58:50.224Z,14.70
2023-05-10T13:01:19.524Z,16.58
2023-05-10T13:03:48.706Z,15.52
2023-05-10T13:06:18.283Z,11.13
2023-05-10T13:08:47.431Z,8.93
2023-05-10T13:11:19.068Z,11.90
2023-05-10T13:13:48.590Z,15.90
2023-05-10T13:16:17.684Z,16.42
2023-05-10T13:18:47.185Z,16.58
2023-05-10T13:21:16.463Z,16.50
2023-05-10T13:23:46.223Z,15.25
2023-05-10T13:26:15.447Z,12.30
2023-05-10T13:28:44.727Z,10.30
2023-05-10T13:31:13.981Z,8.32
2023-05-10T13:33:43.166Z,6.60
2023-05-10T13:36:12.769Z,5.97
2023-05-10T13:38:42.413Z,5.82
2023-05-10T13:41:13.387Z,6.30
2023-05-10T13:43:43.273Z,7.45
2023-05-10T13:46:12.810Z,6.43
2023-05-10T13:48:41.899Z,6.03
2023-05-10T13:51:11.530Z,6.10
2023-05-10T13:53:40.596Z,6.30
2023-05-10T13:56:10.078Z,6.38
2023-05-10T13:58:39.423Z,5.85
2023-05-10T14:01:08.675Z,4.72
2023-05-10T14:03:38.527Z,5.85
2023-05-10T14:06:09.393Z,5.53
2023-05-10T14:08:39.161Z,5.70
2023-05-10T14:11:08.621Z,5.95
2023-05-10T14:13:37.816Z,6.18
2023-05-10T14:16:07.663Z,6.10
2023-05-10T14:18:37.367Z,6.38
2023-05-10T14:21:06.876Z,6.00
2023-05-10T14:23:35.880Z,6.60
2023-05-10T14:26:05.266Z,6.65
2023-05-10T14:28:35.353Z,6.93
2023-05-10T14:31:04.650Z,6.00
2023-05-10T14:33:34.285Z,6.72
2023-05-10T14:36:05.519Z,6.07
2023-05-10T14:38:35.012Z,7.50
2023-05-10T14:41:04.733Z,8.18
2023-05-10T14:43:33.787Z,8.65
2023-05-10T14:46:03.206Z,7.40
2023-05-10T14:48:33.058Z,7.85
2023-05-10T14:51:02.712Z,7.57
2023-05-10T14:53:32.050Z,7.97
2023-05-10T14:56:03.358Z,8.13
2023-05-10T14:58:34.288Z,7.45
2023-05-10T15:01:03.894Z,8.57
2023-05-10T15:03:34.202Z,8.68
2023-05-10T15:06:03.981Z,9.38
2023-05-10T15:08:33.033Z,9.70
2023-05-10T15:11:03.717Z,8.38
2023-05-10T15:13:32.960Z,9.25
2023-05-10T15:16:02.177Z,9.55
2023-05-10T15:18:32.021Z,9.70
2023-05-10T15:21:01.345Z,9.55
2023-05-10T15:23:31.998Z,9.80
2023-05-10T15:26:02.318Z,9.10
2023-05-10T15:28:33.645Z,9.80
2023-05-10T15:31:03.903Z,11.33
2023-05-10T15:33:33.049Z,10.32
2023-05-10T15:36:02.346Z,10.65
2023-05-10T15:38:31.554Z,10.73
2023-05-10T15:41:01.349Z,11.38
2023-05-10T15:43:30.396Z,10.68
2023-05-10T15:45:59.715Z,10.40
2023-05-10T15:48:28.985Z,10.52
2023-05-10T15:50:59.169Z,9.85
2023-05-10T15:53:28.598Z,10.30
2023-05-10T15:55:58.979Z,11.60
2023-05-10T15:58:28.932Z,11.18
2023-05-10T16:00:58.940Z,11.07
2023-05-10T16:03:29.059Z,11.80
2023-05-10T16:05:58.756Z,11.48
2023-05-10T16:08:31.722Z,12.77
2023-05-10T16:11:02.030Z,13.18
2023-05-10T16:13:32.155Z,12.95
2023-05-10T16:16:01.578Z,13.13
2023-05-10T16:18:31.304Z,13.68
2023-05-10T16:21:03.024Z,13.32
2023-05-10T16:23:32.350Z,14.68
2023-05-10T16:26:01.519Z,15.32
2023-05-10T16:28:31.280Z,15.73
2023-05-10T16:31:00.732Z,14.60
2023-05-10T16:33:30.180Z,14.88
2023-05-10T16:35:59.970Z,36.33
2023-05-10T16:38:30.030Z,26.10
2023-05-10T16:41:00.162Z,17.30
2023-05-10T16:43:30.551Z,14.90
2023-05-10T16:46:01.075Z,15.27
2023-05-10T16:48:31.251Z,14.95
2023-05-10T16:51:01.251Z,14.52
2023-05-10T16:53:31.175Z,14.15
2023-05-10T16:56:01.313Z,14.32
2023-05-10T16:58:32.259Z,14.00
2023-05-10T17:01:02.836Z,14.23
2023-05-10T17:03:33.139Z,14.93
2023-05-10T17:06:04.607Z,14.07
2023-05-10T17:08:35.039Z,14.10
2023-05-10T17:11:05.896Z,14.07
2023-05-10T17:13:36.574Z,13.80
2023-05-10T17:16:07.780Z,13.60
2023-05-10T17:18:38.554Z,13.65
2023-05-10T17:21:08.966Z,13.73
2023-05-10T17:23:40.599Z,13.93
2023-05-10T17:26:11.534Z,14.20
2023-05-10T17:28:43.681Z,14.32
2023-05-10T17:31:14.291Z,15.50
2023-05-10T17:33:44.841Z,15.27
2023-05-10T17:36:15.207Z,15.57
2023-05-10T17:38:45.943Z,15.90
2023-05-10T17:41:17.009Z,15.07
2023-05-10T17:43:48.293Z,15.68
2023-05-10T17:46:19.411Z,15.68
2023-05-10T17:48:50.527Z,16.73
2023-05-10T17:51:22.065Z,15.52
2023-05-10T17:53:56.012Z,16.17
2023-05-10T17:56:26.877Z,16.50
2023-05-10T17:58:57.483Z,15.43
2023-05-10T18:01:28.173Z,15.38
2023-05-10T18:03:59.889Z,15.43
2023-05-10T18:06:31.007Z,15.32
2023-05-10T18:09:02.157Z,15.00
2023-05-10T18:11:33.274Z,15.80
2023-05-10T18:14:03.964Z,16.13
2023-05-10T18:16:35.930Z,16.48
2023-05-10T18:19:07.034Z,16.95
2023-05-10T18:21:39.911Z,16.88
2023-05-10T18:24:11.242Z,16.55
2023-05-10T18:26:41.881Z,16.65
2023-05-10T18:29:12.569Z,18.10
2023-05-10T18:31:43.244Z,18.00
2023-05-10T18:34:13.877Z,18.05
2023-05-10T18:36:45.729Z,17.88
2023-05-10T18:39:19.808Z,20.10
2023-05-10T18:41:50.851Z,20.40
2023-05-10T18:44:21.241Z,21.00
2023-05-10T18:46:55.132Z,20.52
2023-05-10T18:49:26.152Z,21.00
2023-05-10T18:51:56.964Z,22.80
2023-05-10T18:54:28.133Z,22.23
2023-05-10T18:57:00.349Z,22.73
2023-05-10T18:59:33.368Z,23.58
2023-05-10T19:02:04.391Z,23.42
2023-05-10T19:04:34.939Z,22.27
2023-05-10T19:07:05.785Z,22.80
2023-05-10T19:09:36.053Z,23.70
2023-05-10T19:12:07.436Z,23.90
2023-05-10T19:14:37.917Z,23.27
2023-05-10T19:17:09.952Z,23.45
2023-05-10T19:19:40.434Z,24.80
2023-05-10T19:22:11.202Z,26.60
2023-05-10T19:24:41.389Z,28.50
2023-05-10T19:27:11.198Z,30.63
2023-05-10T19:29:40.718Z,29.50
2023-05-10T19:32:10.577Z,32.45
2023-05-10T19:34:40.599Z,34.85
2023-05-10T19:37:10.130Z,33.33
2023-05-10T19:39:40.186Z,34.00
2023-05-10T19:42:09.689Z,36.05
2023-05-10T19:44:39.590Z,35.00
2023-05-10T19:47:09.986Z,35.38
2023-05-10T19:49:40.045Z,35.92
2023-05-10T19:52:11.714Z,34.20
2023-05-10T19:54:41.183Z,35.22
2023-05-10T19:57:11.362Z,34.25
2023-05-10T19:59:41.660Z,34.05
2023-05-10T20:02:10.788Z,32.33
2023-05-10T20:04:40.279Z,32.65
2023-05-10T20:07:09.590Z,31.63
2023-05-10T20:09:38.905Z,31.58
2023-05-10T20:12:08.287Z,29.65
2023-05-10T20:14:37.705Z,30.17
2023-05-10T20:17:07.348Z,29.80
2023-05-10T20:19:37.367Z,28.17
2023-05-10T20:22:06.414Z,27.77
2023-05-10T20:24:35.817Z,26.35
2023-05-10T20:27:05.722Z,25.98
2023-05-10T20:29:35.141Z,26.58
2023-05-10T20:32:04.924Z,26.17
2023-05-10T20:34:36.790Z,25.42
2023-05-10T20:37:06.142Z,25.98
2023-05-10T20:39:35.233Z,25.83
2023-05-10T20:42:05.249Z,26.83
2023-05-10T20:44:34.620Z,26.63
2023-05-10T20:47:04.083Z,24.85
2023-05-10T20:49:33.737Z,26.30
2023-05-10T20:52:03.085Z,25.80
2023-05-10T20:54:32.264Z,25.08
2023-05-10T20:57:03.322Z,25.23
2023-05-10T20:59:32.875Z,25.50
2023-05-10T21:02:02.407Z,24.10
2023-05-10T21:04:31.668Z,23.30
2023-05-10T21:07:01.374Z,23.27
2023-05-10T21:09:30.842Z,23.77
2023-05-10T21:12:00.088Z,24.27
2023-05-10T21:14:30.192Z,22.63
2023-05-10T21:16:59.441Z,22.35
2023-05-10T21:19:28.716Z,22.63
2023-05-10T21:22:00.204Z,22.48
2023-05-10T21:24:29.430Z,21.58
2023-05-10T21:26:58.795Z,20.30
2023-05-10T21:29:28.542Z,20.45
2023-05-10T21:31:58.151Z,21.27
2023-05-10T21:34:27.939Z,19.65
2023-05-10T21:36:57.154Z,19.33
2023-05-10T21:39:26.544Z,18.38
2023-05-10T21:41:55.813Z,19.77
2023-05-10T21:44:24.986Z,19.63
2023-05-10T21:46:54.309Z,18.25
2023-05-10T21:49:23.602Z,17.65
2023-05-10T21:51:53.435Z,17.45
2023-05-10T21:54:22.686Z,16.27
2023-05-10T21:56:52.165Z,16.30
2023-05-10T21:59:22.814Z,16.27
2023-05-10T22:01:52.316Z,15.63
2023-05-10T22:04:21.658Z,15.80
2023-05-10T22:06:50.830Z,15.88
2023-05-10T22:09:20.858Z,17.20
2023-05-10T22:11:50.161Z,17.48
2023-05-10T22:14:19.332Z,16.60
2023-05-10T22:16:48.795Z,17.42
2023-05-10T22:19:18.330Z,17.08
2023-05-10T22:21:47.672Z,16.50
2023-05-10T22:24:17.166Z,18.27
2023-05-10T22:26:46.992Z,17.48
2023-05-10T22:29:16.303Z,17.40
2023-05-10T22:31:45.527Z,17.77
2023-05-10T22:34:14.799Z,17.48
2023-05-10T22:36:45.767Z,17.30
2023-05-10T22:39:15.173Z,17.23
2023-05-10T22:41:44.579Z,16.60
2023-05-10T22:44:13.929Z,16.73
2023-05-10T22:46:43.290Z,17.25
2023-05-10T22:49:12.540Z,17.75
2023-05-10T22:51:41.879Z,21.27
2023-05-10T22:54:11.150Z,19.73
2023-05-10T22:56:40.430Z,20.00
2023-05-10T22:59:10.348Z,20.23
2023-05-10T23:01:39.576Z,22.00
2023-05-10T23:04:09.121Z,24.00
2023-05-10T23:06:38.454Z,25.38
2023-05-10T23:09:07.896Z,26.83
2023-05-10T23:11:37.863Z,27.13
2023-05-10T23:14:07.557Z,28.83
2023-05-10T23:16:37.652Z,30.55
2023-05-10T23:19:06.960Z,30.17
2023-05-10T23:21:36.319Z,31.40
2023-05-10T23:24:05.865Z,33.72
2023-05-10T23:26:35.468Z,33.22
2023-05-10T23:29:04.780Z,32.50
2023-05-10T23:31:34.411Z,32.08
2023-05-10T23:34:04.535Z,33.15
2023-05-10T23:36:34.566Z,35.35
2023-05-10T23:39:04.260Z,34.40
2023-05-10T23:41:33.817Z,33.45
2023-05-10T23:44:06.385Z,33.83
2023-05-10T23:46:35.741Z,34.00
2023-05-10T23:49:05.141Z,31.42
2023-05-10T23:51:34.421Z,32.83
2023-05-10T23:54:03.795Z,32.40
2023-05-10T23:56:33.358Z,31.30
2023-05-10T23:59:02.780Z,31.55
